createdAt,value
2023-01-15T00:02:46.092Z,1.58
2023-01-15T00:08:48.183Z,1.23
2023-01-15T00:14:50.323Z,2.05
2023-01-15T00:21:02.683Z,2.03
2023-01-15T00:27:23.303Z,2.38
2023-01-15T00:33:25.098Z,3.83
2023-01-15T00:39:27.465Z,1.67
2023-01-15T00:45:29.641Z,1.48
2023-01-15T00:51:32.367Z,3.50
2023-01-15T00:57:34.821Z,2.33
2023-01-15T01:03:36.922Z,1.55
2023-01-15T01:09:39.013Z,1.92
2023-01-15T01:15:41.913Z,1.92
2023-01-15T01:21:48.013Z,1.38
2023-01-15T01:27:50.249Z,1.38
2023-01-15T01:33:54.568Z,3.72
2023-01-15T01:39:56.714Z,1.15
2023-01-15T01:45:59.223Z,1.48
2023-01-15T01:52:25.091Z,2.08
2023-01-15T01:58:30.999Z,0.80
2023-01-15T02:04:33.467Z,2.45
2023-01-15T02:10:35.633Z,1.02
2023-01-15T02:17:02.962Z,1.63
2023-01-15T02:23:26.173Z,0.75
2023-01-15T02:29:47.473Z,0.20
2023-01-15T02:36:00.840Z,0.80
2023-01-15T02:42:09.095Z,0.20
2023-01-15T02:48:20.504Z,2.03
2023-01-15T02:54:25.255Z,1.17
2023-01-15T03:00:31.352Z,1.05
2023-01-15T03:06:57.068Z,1.85
2023-01-15T03:13:02.391Z,0.65
2023-01-15T03:19:32.113Z,0.20
2023-01-15T03:25:45.680Z,3.70
2023-01-15T03:31:49.885Z,2.28
2023-01-15T03:37:53.733Z,0.43
2023-01-15T03:44:25.597Z,0.82
2023-01-15T03:50:39.056Z,0.55
2023-01-15T03:56:56.001Z,0.77
2023-01-15T04:03:03.981Z,0.30
2023-01-15T04:09:10.368Z,1.15
2023-01-15T04:15:13.391Z,0.52
2023-01-15T04:21:15.422Z,0.98
2023-01-15T04:27:17.192Z,0.98
2023-01-15T04:33:18.931Z,1.65
2023-01-15T04:39:21.025Z,0.82
2023-01-15T04:45:22.773Z,0.82
2023-01-15T04:51:24.801Z,0.45
2023-01-15T04:57:26.555Z,1.00
2023-01-15T05:03:29.392Z,1.17
2023-01-15T05:09:31.634Z,1.40
2023-01-15T05:15:33.462Z,2.13
2023-01-15T05:21:37.567Z,2.40
2023-01-15T05:27:39.406Z,0.30
2023-01-15T05:33:41.830Z,0.63
2023-01-15T05:39:43.657Z,0.77
2023-01-15T05:45:45.439Z,0.43
2023-01-15T05:51:47.907Z,1.10
2023-01-15T05:57:49.720Z,1.45
2023-01-15T06:03:53.572Z,0.25
2023-01-15T06:09:55.431Z,1.33
2023-01-15T06:15:58.962Z,1.23
2023-01-15T06:22:00.811Z,1.75
2023-01-15T06:28:06.895Z,1.45
2023-01-15T06:34:08.669Z,2.90
2023-01-15T06:40:11.093Z,0.85
2023-01-15T06:46:32.326Z,0.75
2023-01-15T06:52:34.114Z,2.95
2023-01-15T06:58:36.098Z,0.82
2023-01-15T07:04:37.915Z,2.05
2023-01-15T07:10:40.237Z,2.50
2023-01-15T07:16:42.120Z,2.40
2023-01-15T07:22:43.860Z,1.55
2023-01-15T07:28:45.629Z,1.77
2023-01-15T07:34:47.420Z,1.83
2023-01-15T07:41:11.550Z,1.35
2023-01-15T07:47:44.553Z,3.17
2023-01-15T07:53:46.372Z,2.40
2023-01-15T07:59:49.093Z,2.17
2023-01-15T08:05:50.889Z,2.42
2023-01-15T08:12:11.579Z,1.48
2023-01-15T08:18:13.365Z,4.10
2023-01-15T08:24:15.099Z,5.15
2023-01-15T08:30:20.998Z,3.95
2023-01-15T08:36:23.133Z,4.40
2023-01-15T08:42:25.014Z,3.42
2023-01-15T08:48:28.324Z,5.65
2023-01-15T08:54:30.235Z,3.60
2023-01-15T09:00:38.093Z,1.75
2023-01-15T09:06:39.933Z,2.40
2023-01-15T09:12:41.670Z,3.42
2023-01-15T09:18:44.141Z,7.20
2023-01-15T09:24:46.511Z,4.05
2023-01-15T09:30:48.515Z,3.08
2023-01-15T09:36:51.248Z,4.93
2023-01-15T09:43:00.896Z,4.35
2023-01-15T09:49:34.290Z,1.98
2023-01-15T09:55:44.650Z,3.72
2023-01-15T10:01:48.672Z,4.38
2023-01-15T10:08:00.673Z,2.78
2023-01-15T10:14:08.849Z,4.53
2023-01-15T10:20:40.271Z,4.88
2023-01-15T10:26:55.633Z,2.95
2023-01-15T10:33:03.304Z,3.17
2023-01-15T10:39:30.137Z,4.63
2023-01-15T10:45:40.429Z,4.90
2023-01-15T10:52:44.844Z,3.55
2023-01-15T10:58:58.371Z,2.67
2023-01-15T11:05:01.893Z,3.15
2023-01-15T11:11:55.297Z,4.22
2023-01-15T11:18:15.528Z,1.55
2023-01-15T11:24:18.332Z,2.92
2023-01-15T11:30:37.419Z,2.47
2023-01-15T11:36:39.208Z,4.32
2023-01-15T11:43:07.982Z,4.93
2023-01-15T11:49:29.463Z,3.42
2023-01-15T11:55:31.409Z,2.78
2023-01-15T12:01:39.546Z,2.85
2023-01-15T12:07:41.426Z,3.40
2023-01-15T12:14:27.575Z,5.15
2023-01-15T12:20:54.548Z,3.50
2023-01-15T12:27:21.422Z,6.53
2023-01-15T12:33:46.863Z,2.38
2023-01-15T12:40:03.822Z,3.42
2023-01-15T12:46:10.149Z,3.85
2023-01-15T12:52:15.955Z,3.58
2023-01-15T12:58:38.717Z,2.58
2023-01-15T13:05:07.167Z,5.72
2023-01-15T13:11:13.255Z,5.20
2023-01-15T13:17:42.066Z,5.88
2023-01-15T13:24:01.585Z,7.10
2023-01-15T13:30:24.225Z,7.30
2023-01-15T13:36:28.343Z,3.55
2023-01-15T13:42:32.141Z,4.70
2023-01-15T13:48:45.520Z,7.70
2023-01-15T13:54:47.498Z,5.38
2023-01-15T14:01:00.139Z,12.75
2023-01-15T14:07:01.940Z,4.72
2023-01-15T14:13:25.084Z,4.85
2023-01-15T14:19:41.353Z,4.63
2023-01-15T14:26:31.566Z,4.38
2023-01-15T14:32:58.318Z,5.82
2023-01-15T14:39:01.757Z,6.35
2023-01-15T14:45:11.890Z,4.47
2023-01-15T14:51:32.627Z,7.60
2023-01-15T14:57:36.684Z,6.90
2023-01-15T15:03:48.852Z,6.43
2023-01-15T15:09:59.963Z,8.07
2023-01-15T15:16:18.994Z,5.40
2023-01-15T15:22:24.896Z,6.60
2023-01-15T15:28:27.090Z,5.53
2023-01-15T15:34:38.063Z,9.75
2023-01-15T15:40:47.312Z,7.07
2023-01-15T15:47:09.202Z,5.85
2023-01-15T15:53:17.526Z,4.00
2023-01-15T15:59:28.527Z,5.90
2023-01-15T16:05:32.068Z,6.22
2023-01-15T16:11:35.428Z,3.90
2023-01-15T16:17:40.484Z,7.32
2023-01-15T16:23:45.879Z,6.82
2023-01-15T16:29:53.849Z,6.75
2023-01-15T16:35:58.299Z,4.63
2023-01-15T16:42:02.307Z,5.55
2023-01-15T16:48:25.053Z,8.18
2023-01-15T16:54:29.851Z,4.85
2023-01-15T17:00:32.793Z,13.38
2023-01-15T17:06:34.690Z,6.03
2023-01-15T17:12:40.084Z,5.20
2023-01-15T17:18:42.013Z,7.57
2023-01-15T17:24:48.791Z,8.43
2023-01-15T17:30:52.751Z,5.93
2023-01-15T17:36:54.544Z,4.95
2023-01-15T17:42:56.618Z,5.13
2023-01-15T17:48:58.365Z,5.68
2023-01-15T17:55:19.103Z,4.72
2023-01-15T18:01:42.926Z,5.80
2023-01-15T18:07:45.837Z,4.07
2023-01-15T18:13:47.622Z,6.72
2023-01-15T18:19:49.833Z,4.57
2023-01-15T18:25:51.581Z,4.82
2023-01-15T18:31:53.426Z,7.55
2023-01-15T18:37:55.312Z,5.20
2023-01-15T18:44:17.492Z,3.95
2023-01-15T18:50:19.285Z,3.80
2023-01-15T18:56:39.091Z,4.00
2023-01-15T19:02:41.076Z,4.28
2023-01-15T19:08:42.884Z,2.05
2023-01-15T19:15:03.078Z,4.05
2023-01-15T19:21:10.269Z,5.32
2023-01-15T19:27:12.407Z,5.00
2023-01-15T19:33:14.179Z,5.03
2023-01-15T19:39:17.703Z,3.78
2023-01-15T19:45:38.136Z,4.43
2023-01-15T19:51:58.364Z,6.28
2023-01-15T19:58:11.789Z,4.45
2023-01-15T20:04:13.606Z,4.40
2023-01-15T20:10:19.407Z,3.38
2023-01-15T20:16:22.946Z,5.10
2023-01-15T20:22:26.135Z,4.95
2023-01-15T20:28:28.078Z,8.15
2023-01-15T20:34:32.092Z,5.00
2023-01-15T20:40:33.894Z,8.25
2023-01-15T20:46:35.961Z,6.75
2023-01-15T20:52:39.151Z,4.03
2023-01-15T20:58:41.450Z,6.65
2023-01-15T21:04:43.258Z,4.68
2023-01-15T21:10:45.023Z,6.47
2023-01-15T21:16:46.881Z,6.38
2023-01-15T21:22:48.724Z,4.00
2023-01-15T21:28:54.381Z,5.78
2023-01-15T21:34:56.488Z,8.95
2023-01-15T21:40:58.425Z,5.35
2023-01-15T21:47:03.130Z,4.57
2023-01-15T21:53:04.918Z,5.90
2023-01-15T21:59:11.158Z,4.35
2023-01-15T22:05:12.981Z,6.03
2023-01-15T22:11:14.714Z,3.58
2023-01-15T22:17:16.477Z,4.55
2023-01-15T22:23:18.293Z,4.70
2023-01-15T22:29:40.034Z,3.40
2023-01-15T22:35:42.119Z,4.22
2023-01-15T22:42:03.407Z,4.43
2023-01-15T22:48:05.528Z,5.22
2023-01-15T22:54:07.311Z,6.18
2023-01-15T23:00:09.759Z,2.10
2023-01-15T23:06:12.322Z,4.65
2023-01-15T23:12:14.055Z,4.88
2023-01-15T23:18:15.786Z,3.90
2023-01-15T23:24:17.935Z,6.75
2023-01-15T23:30:19.815Z,3.30
2023-01-15T23:36:22.172Z,7.25
2023-01-15T23:42:44.721Z,3.63
2023-01-15T23:48:46.556Z,6.32
2023-01-15T23:54:48.354Z,6.10
